Time;durP1;ratioP1;P1;durP2;ratioP2;P2;SDS_P1;SDS_P2;PMS_P1;PMS_P2;Temp;Humidity;BMP_temperature;BMP_pressure;BME280_temperature;BME280_humidity;BME280_pressure;Samples;Min_cycle;Max_cycle;Signal;HPM_P1;HPM_P2
2022/12/22 03:28:07;;;;;;;1.13;0.70;;;18.80;52.50;;;;;;6269230;28;20660;-74
2022/12/22 03:31:07;;;;;;;0.60;0.50;;;18.70;52.30;;;;;;6256901;28;20033;-76
2022/12/22 03:34:08;;;;;;;0.90;0.50;;;18.80;52.40;;;;;;6245225;28;20107;-75
2022/12/22 03:37:08;;;;;;;0.57;0.50;;;18.70;52.30;;;;;;6266976;28;20429;-75
2022/12/22 03:40:09;;;;;;;0.57;0.50;;;18.70;52.40;;;;;;6266653;28;20368;-74
2022/12/22 03:46:31;;;;;;;0.75;0.60;;;18.70;52.40;;;;;;6254982;28;20025;-74
2022/12/22 03:49:32;;;;;;;0.65;0.60;;;18.70;52.40;;;;;;6243215;28;20123;-73
2022/12/22 03:52:32;;;;;;;0.50;0.50;;;18.80;52.50;;;;;;6266249;28;20470;-75
2022/12/22 03:55:33;;;;;;;0.60;0.52;;;18.70;52.40;;;;;;6265123;28;20036;-75
2022/12/22 03:58:34;;;;;;;0.75;0.60;;;18.70;52.40;;;;;;6244035;28;20029;-74
2022/12/22 04:01:38;;;;;;;0.63;0.55;;;18.70;52.40;;;;;;6257879;28;20048;-75
2022/12/22 04:04:38;;;;;;;0.80;0.80;;;18.70;52.30;;;;;;6270516;28;20053;-74
2022/12/22 04:07:39;;;;;;;0.50;0.50;;;18.70;52.40;;;;;;6249189;28;20276;-74
2022/12/22 04:13:59;;;;;;;0.35;0.32;;;18.70;52.40;;;;;;6268207;28;20036;-74
2022/12/22 04:17:00;;;;;;;0.70;0.60;;;18.70;52.50;;;;;;6256147;28;20037;-74
2022/12/22 04:20:01;;;;;;;0.63;0.47;;;18.70;52.40;;;;;;6245452;28;20029;-74
2022/12/22 04:23:02;;;;;;;0.40;0.40;;;18.80;52.60;;;;;;6263884;28;20025;-74
2022/12/22 04:26:02;;;;;;;0.85;0.60;;;18.80;52.40;;;;;;6265067;28;20494;-75
2022/12/22 04:29:03;;;;;;;0.60;0.57;;;18.70;52.40;;;;;;6245076;28;20021;-75
2022/12/22 04:32:03;;;;;;;1.90;0.50;;;18.70;52.30;;;;;;6254822;28;20250;-75
2022/12/22 04:35:05;;;;;;;0.80;0.60;;;18.70;52.40;;;;;;6268553;28;20475;-75
2022/12/22 04:38:05;;;;;;;0.68;0.60;;;18.70;52.40;;;;;;6248840;28;20546;-74
2022/12/22 04:41:07;;;;;;;0.60;0.50;;;18.80;52.40;;;;;;6246601;28;20021;-75
2022/12/22 04:44:07;;;;;;;0.50;0.50;;;18.70;52.40;;;;;;6252251;28;20025;-75
2022/12/22 04:47:08;;;;;;;0.50;0.45;;;18.70;52.40;;;;;;6253744;28;20029;-75
2022/12/22 04:50:09;;;;;;;0.50;0.50;;;18.70;52.30;;;;;;6269171;28;20049;-74
2022/12/22 04:53:09;;;;;;;0.40;0.40;;;18.80;52.40;;;;;;6250590;28;20029;-74
2022/12/22 04:56:10;;;;;;;0.40;0.40;;;18.70;52.50;;;;;;6246768;28;20021;-74
2022/12/22 05:03:08;;;;;;;0.40;0.40;;;18.80;52.40;;;;;;6251884;28;20030;-75
2022/12/22 05:06:09;;;;;;;0.52;0.50;;;18.80;52.50;;;;;;6244937;28;20044;-75
2022/12/22 05:09:10;;;;;;;0.50;0.40;;;18.80;52.50;;;;;;6219859;28;20106;-75
2022/12/22 05:15:32;;;;;;;0.85;0.45;;;18.80;52.50;;;;;;6268890;28;20510;-75
2022/12/22 05:18:34;;;;;;;0.55;0.50;;;18.70;52.30;;;;;;6249079;28;20104;-75
2022/12/22 05:21:35;;;;;;;0.63;0.40;;;18.70;52.40;;;;;;6245871;28;20491;-75
2022/12/22 05:24:35;;;;;;;0.45;0.40;;;18.80;52.50;;;;;;6268474;28;20024;-74
2022/12/22 05:27:36;;;;;;;0.80;0.50;;;18.80;52.40;;;;;;6260022;28;20032;-75
2022/12/22 05:30:39;;;;;;;0.47;0.40;;;18.80;52.50;;;;;;6242480;28;20052;-75
2022/12/22 05:33:39;;;;;;;0.57;0.30;;;18.70;52.40;;;;;;6262732;28;20029;-75
2022/12/22 05:36:40;;;;;;;0.57;0.50;;;18.80;52.40;;;;;;6273471;28;20033;-74
2022/12/22 05:39:41;;;;;;;0.52;0.52;;;18.70;52.40;;;;;;6248596;28;20028;-75
2022/12/22 05:42:41;;;;;;;0.60;0.50;;;18.70;52.40;;;;;;6251283;28;20021;-75
2022/12/22 05:45:45;;;;;;;0.50;0.40;;;18.80;52.50;;;;;;6248546;28;20060;-75
2022/12/22 05:48:46;;;;;;;0.57;0.45;;;18.70;52.50;;;;;;6264067;28;20029;-74
2022/12/22 05:51:47;;;;;;;0.60;0.40;;;18.80;52.50;;;;;;6273030;28;20021;-74
2022/12/22 05:54:47;;;;;;;0.50;0.50;;;18.70;52.40;;;;;;6248958;28;20554;-75
2022/12/22 05:57:48;;;;;;;0.50;0.50;;;18.80;52.50;;;;;;6254548;28;20429;-74
2022/12/22 06:00:49;;;;;;;0.82;0.50;;;18.70;52.40;;;;;;6270534;28;20021;-74
2022/12/22 06:03:49;;;;;;;0.50;0.40;;;18.80;52.60;;;;;;6251590;28;20032;-75
2022/12/22 06:06:50;;;;;;;0.35;0.35;;;18.70;52.40;;;;;;6266941;28;20043;-75
2022/12/22 06:09:50;;;;;;;0.55;0.50;;;18.80;52.40;;;;;;6250513;28;20021;-74
2022/12/22 06:12:51;;;;;;;0.60;0.40;;;18.80;52.50;;;;;;6253008;28;20021;-73
2022/12/22 06:15:52;;;;;;;0.50;0.32;;;18.80;52.50;;;;;;6272528;28;20033;-74
2022/12/22 06:18:52;;;;;;;0.88;0.63;;;18.70;52.30;;;;;;6253561;28;20110;-74
2022/12/22 06:21:53;;;;;;;0.63;0.50;;;18.80;52.40;;;;;;6239965;28;20052;-74
2022/12/22 06:24:53;;;;;;;1.33;0.40;;;18.80;52.50;;;;;;6249878;28;20029;-74
2022/12/22 06:27:54;;;;;;;0.75;0.50;;;18.80;52.50;;;;;;6265104;28;20025;-74
2022/12/22 06:30:55;;;;;;;0.60;0.40;;;18.80;52.60;;;;;;6255671;28;20100;-74
2022/12/22 06:33:56;;;;;;;0.40;0.40;;;18.80;52.50;;;;;;6255866;28;20067;-75
2022/12/22 06:36:57;;;;;;;0.40;0.40;;;18.80;52.60;;;;;;6249536;28;20075;-74
2022/12/22 06:39:57;;;;;;;1.17;0.55;;;18.80;52.70;;;;;;6250300;28;20464;-74
2022/12/22 06:43:10;;;;;;;0.70;0.50;;;18.80;52.70;;;;;;6261281;28;20029;-74
2022/12/22 06:46:10;;;;;;;0.63;0.40;;;18.80;52.80;;;;;;6245868;28;20045;-74
2022/12/22 06:49:11;;;;;;;0.40;0.40;;;18.80;52.70;;;;;;6260227;28;20122;-75
2022/12/22 06:52:11;;;;;;;0.45;0.45;;;18.80;52.70;;;;;;6254829;28;20029;-75
2022/12/22 06:55:12;;;;;;;0.50;0.50;;;18.80;52.80;;;;;;6251408;28;20044;-76
2022/12/22 06:58:13;;;;;;;0.60;0.40;;;18.80;52.70;;;;;;6260807;28;20110;-74
2022/12/22 07:01:13;;;;;;;0.40;0.40;;;18.80;52.70;;;;;;6241084;28;20026;-74
2022/12/22 07:04:18;;;;;;;1.88;0.40;;;18.80;52.70;;;;;;6262084;28;20468;-75
2022/12/22 07:07:19;;;;;;;0.68;0.30;;;18.80;52.70;;;;;;6255839;28;20383;-75
2022/12/22 07:10:56;;;;;;;0.40;0.40;;;18.80;52.70;;;;;;6261967;28;20029;-75
2022/12/22 07:13:40;;;;;;;0.40;0.40;;;18.80;52.70;;;;;;6261902;28;20033;-75
2022/12/22 07:16:41;;;;;;;0.50;0.47;;;18.80;52.70;;;;;;6246280;28;20029;-75
2022/12/22 07:19:41;;;;;;;0.40;0.40;;;18.80;52.70;;;;;;6260814;28;20025;-74
2022/12/22 07:22:42;;;;;;;0.22;0.22;;;18.80;52.70;;;;;;6256365;28;20467;-74
2022/12/22 07:25:42;;;;;;;0.45;0.40;;;18.80;52.80;;;;;;6270548;28;20029;-75
2022/12/22 07:28:43;;;;;;;0.40;0.40;;;18.80;52.80;;;;;;6270821;28;20025;-75
2022/12/22 07:31:44;;;;;;;0.30;0.30;;;18.80;52.90;;;;;;6245728;28;20045;-75
2022/12/22 07:34:44;;;;;;;0.40;0.40;;;18.80;52.90;;;;;;6261705;28;20471;-75
2022/12/22 07:37:47;;;;;;;0.40;0.40;;;18.80;52.90;;;;;;6254098;28;20025;-75
2022/12/22 07:40:48;;;;;;;3.45;0.40;;;18.80;52.90;;;;;;6254834;28;20021;-75
2022/12/22 07:43:48;;;;;;;0.30;0.30;;;18.80;52.90;;;;;;6262023;28;20491;-74
2022/12/22 07:46:49;;;;;;;0.50;0.40;;;18.80;52.90;;;;;;6245314;28;20079;-74
2022/12/22 07:53:09;;;;;;;0.70;0.55;;;18.80;52.90;;;;;;6255430;28;20060;-75
2022/12/22 07:56:10;;;;;;;0.40;0.40;;;18.80;52.90;;;;;;6253137;28;20024;-75
2022/12/22 07:59:11;;;;;;;3.30;0.47;;;18.80;53.00;;;;;;6261629;28;20025;-74
2022/12/22 08:02:12;;;;;;;0.73;0.50;;;18.80;52.90;;;;;;6226037;28;20022;-75
2022/12/22 08:05:12;;;;;;;0.40;0.40;;;18.80;53.00;;;;;;6260144;28;20021;-75
2022/12/22 08:08:13;;;;;;;0.50;0.50;;;18.80;53.00;;;;;;6253520;28;20017;-75
2022/12/22 08:11:14;;;;;;;0.73;0.50;;;18.80;53.00;;;;;;6253536;28;20022;-74
2022/12/22 08:14:14;;;;;;;1.00;0.52;;;18.80;53.00;;;;;;6239058;28;20037;-75
2022/12/22 08:17:15;;;;;;;0.68;0.40;;;18.80;53.00;;;;;;6270851;28;20388;-74
2022/12/22 08:20:16;;;;;;;0.90;0.60;;;18.80;53.00;;;;;;6259707;28;20033;-74
2022/12/22 08:23:17;;;;;;;0.50;0.47;;;18.80;53.00;;;;;;6250361;28;20501;-74
2022/12/22 08:26:27;;;;;;;0.40;0.40;;;18.80;53.00;;;;;;6255211;28;20026;-74
2022/12/22 08:29:39;;;;;;;0.75;0.40;;;18.80;53.00;;;;;;6257342;28;20479;-75
2022/12/22 08:32:41;;;;;;;0.70;0.40;;;18.80;53.00;;;;;;6220908;28;20392;-74
2022/12/22 08:35:42;;;;;;;0.40;0.40;;;18.80;53.00;;;;;;6255369;28;20032;-74
2022/12/22 08:38:43;;;;;;;0.57;0.57;;;18.80;53.00;;;;;;6250714;28;20027;-75
2022/12/22 08:41:49;;;;;;;0.70;0.52;;;18.80;53.00;;;;;;6254210;28;20025;-75
2022/12/22 08:44:53;;;;;;;0.88;0.55;;;18.80;53.00;;;;;;6268654;28;20037;-74
2022/12/22 08:47:54;;;;;;;1.90;0.60;;;18.80;53.00;;;;;;6245983;28;20033;-74
2022/12/22 08:50:54;;;;;;;0.40;0.40;;;18.80;53.10;;;;;;6258041;28;20049;-75
2022/12/22 08:53:55;;;;;;;0.70;0.50;;;18.80;53.10;;;;;;6250338;28;20392;-75
2022/12/22 08:56:57;;;;;;;0.40;0.35;;;18.80;53.10;;;;;;6254035;28;20041;-74
2022/12/22 08:59:58;;;;;;;0.43;0.40;;;18.80;53.10;;;;;;6257790;28;20029;-74
2022/12/22 09:02:58;;;;;;;0.50;0.47;;;18.80;53.10;;;;;;6245693;28;20484;-74
2022/12/22 09:06:00;;;;;;;0.63;0.50;;;18.80;53.10;;;;;;6258111;28;20091;-75
2022/12/22 09:09:03;;;;;;;0.70;0.65;;;18.80;53.10;;;;;;6250445;28;20029;-74
2022/12/22 09:12:05;;;;;;;0.82;0.60;;;18.80;53.10;;;;;;6257301;28;20660;-75
2022/12/22 09:15:07;;;;;;;0.63;0.50;;;18.80;53.10;;;;;;6261159;28;20525;-74
2022/12/22 09:18:08;;;;;;;0.65;0.43;;;18.80;53.10;;;;;;6251553;28;20029;-74
2022/12/22 09:21:09;;;;;;;0.47;0.47;;;18.80;53.10;;;;;;6262853;28;20033;-74
2022/12/22 09:24:09;;;;;;;0.60;0.50;;;18.80;53.10;;;;;;6254732;28;20490;-75
2022/12/22 09:27:10;;;;;;;0.40;0.40;;;18.80;53.10;;;;;;6260890;28;20052;-75
2022/12/22 09:30:11;;;;;;;1.67;0.80;;;18.80;53.10;;;;;;6259987;28;20067;-74
2022/12/22 09:33:12;;;;;;;1.02;0.40;;;18.80;53.20;;;;;;6252163;28;20076;-74
2022/12/22 09:36:15;;;;;;;0.50;0.32;;;18.80;53.20;;;;;;6262298;28;20021;-74
2022/12/22 09:39:16;;;;;;;1.08;0.60;;;18.80;53.10;;;;;;6235694;28;20454;-74
2022/12/22 09:42:19;;;;;;;0.40;0.40;;;18.80;53.10;;;;;;6245390;28;20022;-75
2022/12/22 09:45:20;;;;;;;3.33;0.80;;;18.80;53.10;;;;;;6258410;28;20076;-75
2022/12/22 09:48:20;;;;;;;7.53;1.00;;;18.90;53.10;;;;;;6250039;28;20507;-75
2022/12/22 09:51:22;;;;;;;6.18;0.98;;;18.90;52.90;;;;;;6256376;28;20057;-74
2022/12/22 09:54:24;;;;;;;8.50;1.20;;;19.00;52.90;;;;;;6249583;28;20030;-75
2022/12/22 09:57:29;;;;;;;6.65;1.10;;;19.00;52.90;;;;;;6259509;28;20021;-75
2022/12/22 10:00:35;;;;;;;5.38;1.20;;;19.00;52.80;;;;;;6237630;28;20033;-75
2022/12/22 10:04:08;;;;;;;10.23;1.20;;;19.00;52.80;;;;;;6253026;28;20021;-75
2022/12/22 10:07:11;;;;;;;10.35;1.55;;;19.00;52.80;;;;;;6198184;28;20054;-74
2022/12/22 10:10:23;;;;;;;5.75;1.45;;;19.00;52.80;;;;;;6225415;28;20290;-75
2022/12/22 10:13:24;;;;;;;10.00;1.63;;;19.00;52.60;;;;;;6265983;28;20682;-75
2022/12/22 10:16:27;;;;;;;9.10;1.45;;;19.00;52.80;;;;;;6272092;28;20028;-74
2022/12/22 10:19:28;;;;;;;4.85;1.10;;;19.00;52.90;;;;;;6249187;28;20029;-74
2022/12/22 10:22:33;;;;;;;8.35;1.67;;;19.00;52.90;;;;;;6248089;28;20022;-76
2022/12/22 10:25:36;;;;;;;3.47;1.27;;;18.90;53.00;;;;;;6248485;28;20030;-74
2022/12/22 10:28:44;;;;;;;11.27;1.40;;;18.90;53.00;;;;;;6271364;28;20058;-74
2022/12/22 10:32:11;;;;;;;5.80;1.50;;;18.90;53.10;;;;;;6251974;28;20029;-75
2022/12/22 10:35:12;;;;;;;4.10;1.45;;;18.90;53.10;;;;;;6236897;28;20511;-75
2022/12/22 10:38:37;;;;;;;7.65;1.85;;;18.90;53.20;;;;;;6250337;28;20071;-75
2022/12/22 10:41:45;;;;;;;2.88;1.35;;;18.90;53.20;;;;;;6264153;28;20028;-74
2022/12/22 10:44:48;;;;;;;5.05;1.38;;;18.90;53.20;;;;;;6239931;28;20029;-75
2022/12/22 10:47:54;;;;;;;2.65;1.30;;;18.90;53.30;;;;;;6264411;28;20395;-75
2022/12/22 10:50:56;;;;;;;9.38;1.42;;;18.90;53.30;;;;;;6245946;28;20061;-75
2022/12/22 10:53:57;;;;;;;1.52;0.82;;;18.90;53.30;;;;;;6252612;28;20029;-75
2022/12/22 10:57:18;;;;;;;8.88;1.38;;;18.90;53.30;;;;;;6247619;28;20045;-74
2022/12/22 11:00:28;;;;;;;2.92;1.10;;;18.90;53.30;;;;;;6224984;28;20044;-74
2022/12/22 11:03:30;;;;;;;3.38;1.38;;;18.90;53.30;;;;;;6254968;28;20045;-75
2022/12/22 11:06:31;;;;;;;2.33;1.23;;;18.90;53.30;;;;;;6248612;28;20017;-75
2022/12/22 11:09:32;;;;;;;2.38;0.98;;;18.90;53.30;;;;;;6252740;28;20032;-75
2022/12/22 11:12:44;;;;;;;7.20;1.33;;;18.90;53.30;;;;;;6253180;28;20032;-73
2022/12/22 11:15:54;;;;;;;3.90;1.08;;;18.90;53.30;;;;;;6229722;28;20483;-73
2022/12/22 11:19:17;;;;;;;3.90;1.30;;;18.90;53.30;;;;;;6254920;28;20116;-75
2022/12/22 11:22:47;;;;;;;6.90;1.13;;;18.90;53.30;;;;;;6201577;28;20095;-75
2022/12/22 11:25:48;;;;;;;3.03;1.30;;;18.90;53.30;;;;;;6164831;28;20039;-75
2022/12/22 11:29:00;;;;;;;2.65;1.10;;;18.90;53.30;;;;;;6196828;28;20563;-74
2022/12/22 11:32:12;;;;;;;1.90;0.80;;;18.90;53.40;;;;;;6197642;28;20448;-74
2022/12/22 11:35:31;;;;;;;4.97;1.17;;;18.90;53.30;;;;;;6197792;28;20042;-75
2022/12/22 11:38:51;;;;;;;2.35;1.00;;;18.90;53.40;;;;;;6202550;28;20027;-75
2022/12/22 11:41:51;;;;;;;2.63;1.00;;;18.90;53.40;;;;;;6195495;28;20043;-74
2022/12/22 11:45:13;;;;;;;2.90;1.10;;;18.90;53.40;;;;;;6210498;28;20135;-74
2022/12/22 11:48:21;;;;;;;2.28;1.20;;;18.90;53.40;;;;;;6216066;28;20504;-75
2022/12/22 11:51:46;;;;;;;3.67;1.20;;;18.90;53.40;;;;;;6193762;28;20060;-75
2022/12/22 11:55:08;;;;;;;1.13;0.80;;;18.90;53.40;;;;;;6251001;28;20029;-74
2022/12/22 11:58:32;;;;;;;3.17;0.82;;;18.90;53.40;;;;;;6252990;28;20107;-74
2022/12/22 12:01:56;;;;;;;3.03;1.38;;;18.90;53.40;;;;;;6246093;28;20032;-75
2022/12/22 12:05:06;;;;;;;1.75;0.80;;;18.90;53.40;;;;;;6252619;28;20100;-75
2022/12/22 12:08:26;;;;;;;1.60;0.88;;;18.90;53.40;;;;;;6252186;28;20113;-74
2022/12/22 12:11:31;;;;;;;2.30;0.98;;;18.90;53.40;;;;;;6234294;28;20021;-75
2022/12/22 12:14:52;;;;;;;3.17;0.98;;;18.90;53.40;;;;;;6252713;28;20033;-74
2022/12/22 12:18:11;;;;;;;5.00;0.88;;;18.90;53.40;;;;;;6248888;28;20426;-74
2022/12/22 12:21:50;;;;;;;4.22;0.98;;;18.90;53.50;;;;;;6245940;28;20593;-75
2022/12/22 12:25:03;;;;;;;2.38;1.10;;;18.90;53.50;;;;;;6238536;28;20633;-75
2022/12/22 12:28:30;;;;;;;1.15;0.68;;;18.90;53.50;;;;;;6246530;28;20033;-74
2022/12/22 12:31:38;;;;;;;4.25;1.05;;;18.90;53.50;;;;;;6201785;28;20049;-75
2022/12/22 12:34:43;;;;;;;3.83;1.08;;;18.90;53.50;;;;;;6238926;28;20034;-75
2022/12/22 12:37:48;;;;;;;3.43;1.30;;;18.90;53.50;;;;;;6244931;28;20060;-75
2022/12/22 12:40:53;;;;;;;1.15;0.73;;;18.90;53.50;;;;;;6250039;28;20634;-75
2022/12/22 12:43:55;;;;;;;2.58;1.27;;;18.90;53.50;;;;;;6248402;28;20321;-74
2022/12/22 12:47:21;;;;;;;3.55;0.93;;;18.90;53.50;;;;;;6268616;28;20068;-74
2022/12/22 12:50:33;;;;;;;3.13;1.05;;;18.90;53.60;;;;;;6199840;28;1615325;-75
2022/12/22 12:53:34;;;;;;;1.95;1.10;;;18.90;53.50;;;;;;6247702;28;20034;-75
2022/12/22 12:57:06;;;;;;;2.53;1.02;;;18.90;53.60;;;;;;6268228;28;20039;-75
2022/12/22 13:00:32;;;;;;;2.40;1.27;;;18.90;53.50;;;;;;6261169;28;20032;-75
2022/12/22 13:03:37;;;;;;;1.08;0.80;;;18.90;53.50;;;;;;6246419;28;20029;-75
2022/12/22 13:06:50;;;;;;;1.65;0.95;;;18.90;53.60;;;;;;6227478;28;20033;-74
2022/12/22 13:10:21;;;;;;;1.98;1.00;;;18.90;53.50;;;;;;6237622;28;20024;-73
2022/12/22 13:13:24;;;;;;;1.55;1.27;;;18.90;53.50;;;;;;6243926;28;20034;-75
2022/12/22 13:16:27;;;;;;;2.90;1.35;;;18.90;53.50;;;;;;6250395;28;20536;-75
2022/12/22 13:19:29;;;;;;;1.05;0.90;;;18.90;53.50;;;;;;6250769;28;20391;-75
2022/12/22 13:22:31;;;;;;;2.70;1.10;;;18.90;53.60;;;;;;6245377;28;20021;-74
2022/12/22 13:25:55;;;;;;;2.28;1.20;;;18.90;53.60;;;;;;6250599;28;20108;-74
2022/12/22 13:28:59;;;;;;;1.67;1.05;;;18.90;53.50;;;;;;6244487;28;20033;-73
2022/12/22 13:32:01;;;;;;;1.75;0.98;;;18.90;53.60;;;;;;6249155;28;20567;-74
2022/12/22 13:35:21;;;;;;;2.85;1.13;;;18.90;53.60;;;;;;6248866;28;20026;-74
2022/12/22 13:38:33;;;;;;;2.22;0.90;;;18.90;53.60;;;;;;6244581;28;20037;-74
2022/12/22 13:41:33;;;;;;;4.20;1.20;;;18.90;53.60;;;;;;6244369;28;20084;-74
2022/12/22 13:44:34;;;;;;;1.60;1.00;;;18.90;53.60;;;;;;6269219;28;20549;-75
2022/12/22 13:47:43;;;;;;;2.22;1.10;;;18.90;53.60;;;;;;6246446;28;20025;-75
2022/12/22 13:50:54;;;;;;;2.75;1.10;;;18.90;53.60;;;;;;6246107;28;20041;-75
2022/12/22 13:53:59;;;;;;;2.88;0.80;;;18.90;53.60;;;;;;6245286;28;20049;-75
2022/12/22 13:57:02;;;;;;;1.45;0.98;;;18.90;53.60;;;;;;6252583;28;20029;-75
2022/12/22 14:00:02;;;;;;;1.98;0.88;;;18.90;53.60;;;;;;6254116;28;20056;-75
2022/12/22 14:03:17;;;;;;;3.00;0.90;;;18.90;53.60;;;;;;6249539;28;20045;-75
2022/12/22 14:06:27;;;;;;;1.30;0.90;;;18.90;53.60;;;;;;6254416;28;20581;-75
2022/12/22 14:09:28;;;;;;;1.05;0.90;;;18.90;53.60;;;;;;6238426;28;20030;-74
2022/12/22 14:12:32;;;;;;;2.67;0.90;;;18.90;53.70;;;;;;6261618;28;20029;-75
2022/12/22 14:15:33;;;;;;;1.20;1.00;;;18.90;53.70;;;;;;6271295;28;20369;-75
2022/12/22 14:18:36;;;;;;;1.90;0.98;;;18.90;53.70;;;;;;6249174;28;20025;-75
2022/12/22 14:21:37;;;;;;;1.20;0.77;;;18.90;53.80;;;;;;6250183;28;20478;-75
2022/12/22 14:24:47;;;;;;;1.95;1.30;;;18.90;53.70;;;;;;6238118;28;20034;-74
2022/12/22 14:27:51;;;;;;;1.83;0.80;;;18.90;53.70;;;;;;6243482;28;20032;-74
2022/12/22 14:30:55;;;;;;;4.25;0.80;;;18.90;53.70;;;;;;6249952;28;20021;-74
2022/12/22 14:34:04;;;;;;;1.33;0.80;;;18.90;53.70;;;;;;6234311;28;20474;-73
2022/12/22 14:37:08;;;;;;;2.22;1.05;;;18.90;53.80;;;;;;6239356;28;20438;-74
2022/12/22 14:40:30;;;;;;;3.53;0.82;;;18.90;53.70;;;;;;6248554;28;20017;-76
2022/12/22 14:43:31;;;;;;;1.60;0.88;;;18.90;53.70;;;;;;6272485;28;20021;-74
2022/12/22 14:46:32;;;;;;;1.60;0.63;;;18.90;53.70;;;;;;6238247;28;20092;-74
2022/12/22 14:49:34;;;;;;;1.25;0.70;;;18.90;53.70;;;;;;6243551;28;20053;-74
2022/12/22 14:52:42;;;;;;;2.60;0.95;;;18.90;53.70;;;;;;6250123;28;20079;-74
2022/12/22 14:55:49;;;;;;;1.13;0.90;;;18.90;53.70;;;;;;6248540;28;20396;-74
2022/12/22 14:58:49;;;;;;;1.17;0.80;;;18.90;53.70;;;;;;6271666;28;20029;-74
2022/12/22 15:02:20;;;;;;;1.00;0.90;;;18.90;53.70;;;;;;6266252;28;20039;-74
2022/12/22 15:05:34;;;;;;;2.65;0.90;;;18.90;53.70;;;;;;6247898;28;20446;-75
2022/12/22 15:08:36;;;;;;;2.00;0.73;;;18.90;53.70;;;;;;6245043;28;20488;-74
2022/12/22 15:11:48;;;;;;;1.95;0.82;;;18.90;53.70;;;;;;6249605;28;20067;-74
2022/12/22 15:14:48;;;;;;;1.20;1.00;;;18.90;53.70;;;;;;6247166;28;20029;-74
2022/12/22 15:17:52;;;;;;;1.35;0.90;;;18.90;53.70;;;;;;6249658;28;20048;-75
2022/12/22 15:20:54;;;;;;;1.10;0.80;;;18.90;53.80;;;;;;6228356;28;20108;-74
2022/12/22 15:23:55;;;;;;;3.15;0.90;;;18.90;53.70;;;;;;6247081;28;20080;-74
2022/12/22 15:26:55;;;;;;;1.00;0.80;;;18.90;53.70;;;;;;6247111;28;20024;-74
2022/12/22 15:29:56;;;;;;;1.17;0.70;;;18.90;53.70;;;;;;6247513;28;20025;-74
2022/12/22 15:32:57;;;;;;;1.23;0.90;;;18.90;53.80;;;;;;6248270;28;20511;-74
2022/12/22 15:35:57;;;;;;;1.73;0.95;;;18.90;53.70;;;;;;6246636;28;20112;-74
2022/12/22 15:38:58;;;;;;;0.80;0.70;;;18.90;53.80;;;;;;6247928;28;20109;-74
2022/12/22 15:41:59;;;;;;;0.98;0.68;;;18.90;53.80;;;;;;6248726;28;20441;-74
2022/12/22 15:44:59;;;;;;;1.13;0.90;;;18.90;53.70;;;;;;6255603;28;20017;-75
2022/12/22 15:48:00;;;;;;;2.50;0.85;;;18.90;53.70;;;;;;6260822;28;20033;-74
2022/12/22 15:51:06;;;;;;;1.00;0.80;;;18.90;53.80;;;;;;6244837;28;20458;-74
2022/12/22 15:54:12;;;;;;;1.48;1.00;;;18.90;53.80;;;;;;6245413;28;20026;-74
2022/12/22 15:57:13;;;;;;;1.17;0.88;;;18.90;53.80;;;;;;6241948;28;20023;-74
2022/12/22 16:00:14;;;;;;;1.10;0.90;;;18.90;53.80;;;;;;6244442;28;20476;-73
2022/12/22 16:03:15;;;;;;;1.40;0.90;;;18.90;53.80;;;;;;6246247;28;20079;-74
2022/12/22 16:06:18;;;;;;;1.63;0.75;;;18.90;53.70;;;;;;6243230;28;20018;-74
2022/12/22 16:09:26;;;;;;;1.42;0.80;;;18.90;53.80;;;;;;6245699;28;20033;-74
2022/12/22 16:12:28;;;;;;;0.80;0.70;;;18.90;53.80;;;;;;6246277;28;20078;-74
2022/12/22 16:15:31;;;;;;;1.10;0.60;;;18.90;53.80;;;;;;6242794;28;20033;-74
2022/12/22 16:18:32;;;;;;;1.50;0.90;;;18.90;53.80;;;;;;6239093;28;20029;-74
2022/12/22 16:21:33;;;;;;;0.73;0.63;;;18.90;53.80;;;;;;6223256;28;20436;-74
2022/12/22 16:24:36;;;;;;;1.15;0.80;;;18.90;53.80;;;;;;6261207;28;20033;-74
2022/12/22 16:27:37;;;;;;;1.17;0.88;;;18.90;53.80;;;;;;6267520;28;20029;-73
2022/12/22 16:30:38;;;;;;;1.00;0.70;;;18.90;53.80;;;;;;6268195;28;20115;-74
2022/12/22 16:33:38;;;;;;;2.58;0.85;;;18.90;53.80;;;;;;6266672;28;20029;-74
2022/12/22 16:36:39;;;;;;;0.77;0.65;;;18.90;53.80;;;;;;6243098;28;20025;-73
2022/12/22 16:39:40;;;;;;;0.80;0.60;;;18.90;53.80;;;;;;6260585;28;20044;-74
2022/12/22 16:42:46;;;;;;;1.20;0.90;;;18.90;53.90;;;;;;6264084;28;20364;-74
2022/12/22 16:45:47;;;;;;;1.02;0.60;;;18.90;53.80;;;;;;6267632;28;20575;-74
2022/12/22 16:48:51;;;;;;;0.85;0.60;;;18.90;53.80;;;;;;6267670;28;20445;-72
2022/12/22 16:51:53;;;;;;;1.00;0.80;;;18.90;53.80;;;;;;6268505;28;20025;-74
2022/12/22 16:54:53;;;;;;;1.13;0.68;;;18.90;53.80;;;;;;6266732;28;20159;-74
2022/12/22 16:57:54;;;;;;;1.00;0.80;;;18.90;53.80;;;;;;6268654;28;20483;-74
2022/12/22 17:00:55;;;;;;;2.45;0.70;;;18.90;53.80;;;;;;6267075;28;20087;-74
2022/12/22 17:03:59;;;;;;;1.00;0.70;;;18.90;53.80;;;;;;6267112;28;20075;-74
2022/12/22 17:07:01;;;;;;;1.43;0.70;;;18.90;53.90;;;;;;6268318;28;20383;-73
2022/12/22 17:10:01;;;;;;;1.27;0.75;;;18.90;53.90;;;;;;6266020;28;20048;-74
2022/12/22 17:13:02;;;;;;;1.02;0.75;;;18.90;53.90;;;;;;6238232;28;20068;-74
2022/12/22 17:16:04;;;;;;;0.95;0.70;;;18.90;53.90;;;;;;6254268;28;20037;-73
2022/12/22 17:19:05;;;;;;;1.38;0.80;;;18.90;53.90;;;;;;6233594;28;20025;-73
2022/12/22 17:22:19;;;;;;;1.15;0.70;;;18.90;53.80;;;;;;6241022;28;20155;-74
2022/12/22 17:25:28;;;;;;;0.70;0.60;;;18.90;53.90;;;;;;6232644;28;20036;-74
2022/12/22 17:28:29;;;;;;;0.85;0.60;;;18.90;53.90;;;;;;6241404;28;20422;-74
2022/12/22 17:31:30;;;;;;;1.50;0.88;;;18.90;53.90;;;;;;6254374;28;20021;-73
2022/12/22 17:34:30;;;;;;;1.30;0.70;;;18.90;53.90;;;;;;6246270;28;20030;-74
2022/12/22 17:37:31;;;;;;;1.05;0.70;;;18.90;53.90;;;;;;6246150;28;20044;-74
2022/12/22 17:40:33;;;;;;;0.95;0.60;;;18.90;53.90;;;;;;6248123;28;20128;-74
2022/12/22 17:43:33;;;;;;;0.88;0.68;;;18.90;53.90;;;;;;6232136;28;20068;-73
2022/12/22 17:46:34;;;;;;;1.52;0.88;;;18.90;53.90;;;;;;6268869;28;20021;-74
2022/12/22 17:49:34;;;;;;;1.17;0.60;;;18.90;53.80;;;;;;6257937;28;20103;-74
2022/12/22 17:52:35;;;;;;;0.80;0.70;;;18.90;53.90;;;;;;6267774;28;20078;-73
2022/12/22 17:55:36;;;;;;;0.85;0.70;;;18.90;53.90;;;;;;6268054;28;20048;-74
2022/12/22 17:58:36;;;;;;;0.60;0.60;;;18.90;53.90;;;;;;6267910;28;20104;-74
2022/12/22 18:01:38;;;;;;;1.27;0.85;;;18.90;53.90;;;;;;6255089;28;20065;-74
2022/12/22 18:04:39;;;;;;;0.77;0.50;;;18.90;53.90;;;;;;6247266;28;20036;-74
2022/12/22 18:07:40;;;;;;;1.27;0.80;;;18.90;53.90;;;;;;6248831;28;20173;-74
2022/12/22 18:10:41;;;;;;;1.15;0.80;;;18.90;53.90;;;;;;6237648;28;20129;-74
2022/12/22 18:13:42;;;;;;;0.63;0.50;;;18.90;53.90;;;;;;6214207;28;20061;-73
2022/12/22 18:16:43;;;;;;;0.85;0.70;;;18.90;53.90;;;;;;6261540;28;20340;-74
2022/12/22 18:19:43;;;;;;;0.95;0.73;;;18.90;53.90;;;;;;6269149;28;20020;-74
2022/12/22 18:22:45;;;;;;;1.90;0.70;;;18.90;53.90;;;;;;6268976;28;20025;-74
2022/12/22 18:25:45;;;;;;;0.90;0.70;;;18.90;53.90;;;;;;6256228;28;20067;-74
2022/12/22 18:28:47;;;;;;;0.98;0.80;;;18.90;53.90;;;;;;6269039;28;20025;-74
2022/12/22 18:31:48;;;;;;;0.88;0.68;;;18.90;53.90;;;;;;6266207;28;20506;-73
2022/12/22 18:34:48;;;;;;;0.85;0.65;;;18.90;53.90;;;;;;6260835;28;20033;-74
2022/12/22 18:37:50;;;;;;;1.10;0.70;;;18.90;53.90;;;;;;6268943;28;20348;-74
2022/12/22 18:40:52;;;;;;;1.65;0.85;;;18.90;53.90;;;;;;6263034;28;20059;-74
2022/12/22 18:43:52;;;;;;;0.90;0.68;;;18.90;53.90;;;;;;6251118;28;20494;-73
2022/12/22 18:46:53;;;;;;;1.23;0.75;;;18.90;53.90;;;;;;6245513;28;20034;-74
2022/12/22 18:49:54;;;;;;;0.40;0.40;;;18.90;53.90;;;;;;6221775;28;20124;-74
2022/12/22 18:52:57;;;;;;;1.30;0.70;;;18.90;53.90;;;;;;6268087;28;20037;-74
2022/12/22 18:55:58;;;;;;;0.90;0.68;;;18.90;53.90;;;;;;6264964;28;20633;-73
2022/12/22 18:58:59;;;;;;;0.73;0.63;;;18.90;53.90;;;;;;6259505;28;20395;-74
2022/12/22 19:02:24;;;;;;;0.60;0.50;;;18.90;53.90;;;;;;6237855;28;20030;-74
2022/12/22 19:05:28;;;;;;;0.40;0.40;;;18.90;53.90;;;;;;6243411;28;20083;-74
2022/12/22 19:08:30;;;;;;;0.90;0.70;;;18.90;53.90;;;;;;6242383;28;20300;-74
2022/12/22 19:11:31;;;;;;;0.70;0.70;;;18.90;53.90;;;;;;6240915;28;20403;-74
2022/12/22 19:14:32;;;;;;;1.08;0.77;;;18.90;53.90;;;;;;6240734;28;20719;-74
2022/12/22 19:17:32;;;;;;;1.17;0.70;;;18.90;53.90;;;;;;6245592;28;20025;-73
2022/12/22 19:20:33;;;;;;;0.60;0.60;;;18.90;53.90;;;;;;6243779;28;20384;-74
2022/12/22 19:23:34;;;;;;;1.52;0.50;;;18.90;53.90;;;;;;6233184;28;20026;-74
2022/12/22 19:26:34;;;;;;;0.70;0.70;;;18.90;53.90;;;;;;6237776;28;20106;-73
2022/12/22 19:29:35;;;;;;;0.93;0.63;;;18.90;53.90;;;;;;6268132;28;20025;-74
2022/12/22 19:32:41;;;;;;;0.85;0.60;;;18.90;53.90;;;;;;6266351;28;20033;-74
2022/12/22 19:35:42;;;;;;;1.38;0.80;;;18.90;53.90;;;;;;6251394;28;20040;-75
2022/12/22 19:38:43;;;;;;;0.90;0.70;;;18.90;53.90;;;;;;6268738;28;20543;-74
2022/12/22 19:41:49;;;;;;;0.85;0.80;;;18.90;53.90;;;;;;6266729;28;20450;-74